createdAt,value
2023-09-27T00:02:56.847Z,17.69
2023-09-27T00:06:00.418Z,17.95
2023-09-27T00:09:05.042Z,17.96
2023-09-27T00:12:08.152Z,17.96
2023-09-27T00:15:12.878Z,17.95
2023-09-27T00:18:16.180Z,17.93
2023-09-27T00:21:18.789Z,17.93
2023-09-27T00:24:21.752Z,17.89
2023-09-27T00:27:24.352Z,17.87
2023-09-27T00:30:27.520Z,17.81
2023-09-27T00:33:30.249Z,17.78
2023-09-27T00:36:34.280Z,17.77
2023-09-27T00:39:37.739Z,17.74
2023-09-27T00:42:40.567Z,17.59
2023-09-27T00:45:43.251Z,17.61
2023-09-27T00:48:46.892Z,17.48
2023-09-27T00:51:49.799Z,17.47
2023-09-27T00:54:53.622Z,17.48
2023-09-27T00:57:56.535Z,17.44
2023-09-27T01:01:00.894Z,17.39
2023-09-27T01:04:03.840Z,17.37
2023-09-27T01:07:08.573Z,17.35
2023-09-27T01:10:11.976Z,17.36
2023-09-27T01:13:15.121Z,17.34
2023-09-27T01:16:17.808Z,17.30
2023-09-27T01:19:20.836Z,17.28
2023-09-27T01:22:23.456Z,17.24
2023-09-27T01:25:34.408Z,17.24
2023-09-27T01:28:38.096Z,17.19
2023-09-27T01:31:41.250Z,17.15
2023-09-27T01:34:43.765Z,17.13
2023-09-27T01:37:46.931Z,17.09
2023-09-27T01:40:49.495Z,17.08
2023-09-27T01:43:52.369Z,16.70
2023-09-27T01:46:55.135Z,17.09
2023-09-27T01:49:58.970Z,16.99
2023-09-27T01:53:01.876Z,17.07
2023-09-27T01:56:05.287Z,17.08
2023-09-27T01:59:08.133Z,17.10
2023-09-27T02:02:11.076Z,17.11
2023-09-27T02:05:14.204Z,17.14
2023-09-27T02:08:17.748Z,17.17
2023-09-27T02:11:26.703Z,17.15
2023-09-27T02:14:29.609Z,17.14
2023-09-27T02:17:32.629Z,17.13
2023-09-27T02:20:35.699Z,17.16
2023-09-27T02:23:38.765Z,17.14
2023-09-27T02:26:41.630Z,17.11
2023-09-27T02:29:44.390Z,17.12
2023-09-27T02:32:47.500Z,17.10
2023-09-27T02:35:50.383Z,16.75
2023-09-27T02:38:53.675Z,17.09
2023-09-27T02:41:58.166Z,17.08
2023-09-27T02:45:01.222Z,17.06
2023-09-27T02:48:05.215Z,16.91
2023-09-27T02:51:08.355Z,17.02
2023-09-27T02:54:11.828Z,17.02
2023-09-27T02:57:15.062Z,16.98
2023-09-27T03:00:20.051Z,16.95
2023-09-27T03:03:22.972Z,16.91
2023-09-27T03:06:26.019Z,16.86
2023-09-27T03:09:28.950Z,16.80
2023-09-27T03:12:31.693Z,16.74
2023-09-27T03:15:35.655Z,16.63
2023-09-27T03:18:38.944Z,16.58
2023-09-27T03:21:42.115Z,16.54
2023-09-27T03:24:45.660Z,16.53
2023-09-27T03:27:48.948Z,16.51
2023-09-27T03:30:52.130Z,16.44
2023-09-27T03:33:55.385Z,16.40
2023-09-27T03:36:58.677Z,16.33
2023-09-27T03:40:02.777Z,16.25
2023-09-27T03:43:06.057Z,16.20
2023-09-27T03:46:09.093Z,16.19
2023-09-27T03:49:14.208Z,16.19
2023-09-27T03:52:17.143Z,16.18
2023-09-27T03:55:19.874Z,16.16
2023-09-27T03:58:22.869Z,16.16
2023-09-27T04:01:25.634Z,16.17
2023-09-27T04:04:28.616Z,15.88
2023-09-27T04:07:31.314Z,16.08
2023-09-27T04:10:35.173Z,16.04
2023-09-27T04:13:37.756Z,16.00
2023-09-27T04:16:40.825Z,15.98
2023-09-27T04:19:43.650Z,15.86
2023-09-27T04:22:48.744Z,15.97
2023-09-27T04:25:51.715Z,15.98
2023-09-27T04:28:55.486Z,15.97
2023-09-27T04:31:58.170Z,15.94
2023-09-27T04:35:01.237Z,15.91
2023-09-27T04:38:05.376Z,15.92
2023-09-27T04:41:09.744Z,15.89
2023-09-27T04:44:12.330Z,15.86
2023-09-27T04:47:15.792Z,15.84
2023-09-27T04:50:18.503Z,15.82
2023-09-27T04:53:21.855Z,15.83
2023-09-27T04:56:24.479Z,15.82
2023-09-27T04:59:27.447Z,15.79
2023-09-27T05:02:30.292Z,15.81
2023-09-27T05:05:33.688Z,16.32
2023-09-27T05:08:36.615Z,16.32
2023-09-27T05:11:39.560Z,16.27
2023-09-27T05:14:42.611Z,16.20
2023-09-27T05:17:45.980Z,16.19
2023-09-27T05:20:48.635Z,16.17
2023-09-27T05:23:51.657Z,16.19
2023-09-27T05:26:54.295Z,16.22
2023-09-27T05:29:58.183Z,16.21
2023-09-27T05:33:01.039Z,16.23
2023-09-27T05:36:04.153Z,16.22
2023-09-27T05:39:09.281Z,16.28
2023-09-27T05:42:12.145Z,16.31
2023-09-27T05:45:14.861Z,16.34
2023-09-27T05:48:18.183Z,16.35
2023-09-27T05:51:20.937Z,16.33
2023-09-27T05:54:23.734Z,16.38
2023-09-27T05:57:26.792Z,16.30
2023-09-27T06:00:38.807Z,16.47
2023-09-27T06:03:41.766Z,16.98
2023-09-27T06:06:44.516Z,16.85
2023-09-27T06:09:47.430Z,16.96
2023-09-27T06:12:50.059Z,16.95
2023-09-27T06:15:52.973Z,16.98
2023-09-27T06:18:56.231Z,17.00
2023-09-27T06:21:59.320Z,16.97
2023-09-27T06:25:02.244Z,17.07
2023-09-27T06:28:05.551Z,17.16
2023-09-27T06:31:08.233Z,17.02
2023-09-27T06:34:11.275Z,17.41
2023-09-27T06:37:15.123Z,17.54
2023-09-27T06:40:20.422Z,17.69
2023-09-27T06:43:23.134Z,17.81
2023-09-27T06:46:30.009Z,18.04
2023-09-27T06:49:38.348Z,18.35
2023-09-27T06:52:41.623Z,18.35
2023-09-27T06:55:48.945Z,18.47
2023-09-27T06:58:52.702Z,18.58
2023-09-27T07:01:55.398Z,18.73
2023-09-27T07:04:58.140Z,18.88
2023-09-27T07:08:01.476Z,18.94
2023-09-27T07:11:09.540Z,19.15
2023-09-27T07:14:13.551Z,19.26
2023-09-27T07:17:16.542Z,19.28
2023-09-27T07:20:34.468Z,19.48
2023-09-27T07:23:38.378Z,19.63
2023-09-27T07:26:42.602Z,19.78
2023-09-27T07:29:45.548Z,19.86
2023-09-27T07:32:48.842Z,20.00
2023-09-27T07:35:53.323Z,20.13
2023-09-27T07:38:59.030Z,20.31
2023-09-27T07:42:02.074Z,20.57
2023-09-27T07:45:06.608Z,20.63
2023-09-27T07:48:09.676Z,20.82
2023-09-27T07:51:13.400Z,20.95
2023-09-27T07:54:16.568Z,21.11
2023-09-27T07:57:19.344Z,21.24
2023-09-27T08:00:28.582Z,21.53
2023-09-27T08:03:31.645Z,21.70
2023-09-27T08:06:37.165Z,21.82
2023-09-27T08:09:41.768Z,21.96
2023-09-27T08:12:45.091Z,22.09
2023-09-27T08:15:50.438Z,22.28
2023-09-27T08:18:53.420Z,22.43
2023-09-27T08:21:59.670Z,22.69
2023-09-27T08:25:02.808Z,22.82
2023-09-27T08:28:09.920Z,22.98
2023-09-27T08:31:12.540Z,23.35
2023-09-27T08:34:15.480Z,23.46
2023-09-27T08:37:19.134Z,23.40
2023-09-27T08:40:22.814Z,23.61
2023-09-27T08:43:26.941Z,23.72
2023-09-27T08:46:30.478Z,24.01
2023-09-27T08:49:33.156Z,24.20
2023-09-27T08:52:36.017Z,24.46
2023-09-27T08:55:39.493Z,24.60
2023-09-27T08:58:42.418Z,24.78
2023-09-27T09:01:46.137Z,25.05
2023-09-27T09:04:49.091Z,25.22
2023-09-27T09:07:54.487Z,25.41
2023-09-27T09:10:57.586Z,25.33
2023-09-27T09:14:06.045Z,25.58
2023-09-27T09:17:09.358Z,25.75
2023-09-27T09:20:28.501Z,25.89
2023-09-27T09:23:33.876Z,26.25
2023-09-27T09:26:36.600Z,26.49
2023-09-27T09:29:47.171Z,26.61
2023-09-27T09:32:51.452Z,26.78
2023-09-27T09:35:55.598Z,27.15
2023-09-27T09:39:14.856Z,27.03
2023-09-27T09:42:36.688Z,27.42
2023-09-27T09:45:44.236Z,27.63
2023-09-27T09:48:47.237Z,27.64
2023-09-27T09:51:51.249Z,27.70
2023-09-27T09:55:11.782Z,27.89
2023-09-27T09:58:37.328Z,27.91
2023-09-27T10:01:41.290Z,28.34
2023-09-27T10:04:44.314Z,28.36
2023-09-27T10:07:47.928Z,28.79
2023-09-27T10:10:50.705Z,28.96
2023-09-27T10:13:53.732Z,29.38
2023-09-27T10:16:56.724Z,29.56
2023-09-27T10:20:13.870Z,29.57
2023-09-27T10:23:16.983Z,29.80
2023-09-27T10:26:28.350Z,30.03
2023-09-27T10:29:31.212Z,29.68
2023-09-27T10:32:34.458Z,29.91
2023-09-27T10:35:37.486Z,30.19
2023-09-27T10:39:00.605Z,30.37
2023-09-27T10:42:03.599Z,30.35
2023-09-27T10:45:10.011Z,30.55
2023-09-27T10:48:20.278Z,30.90
2023-09-27T10:51:26.176Z,31.24
2023-09-27T10:54:30.501Z,31.26
2023-09-27T10:57:34.565Z,31.18
2023-09-27T11:00:50.670Z,31.51
2023-09-27T11:04:00.261Z,31.61
2023-09-27T11:07:03.529Z,31.46
2023-09-27T11:10:06.653Z,31.74
2023-09-27T11:13:14.836Z,31.60
2023-09-27T11:16:19.656Z,32.01
2023-09-27T11:19:29.820Z,32.10
2023-09-27T11:22:32.383Z,32.32
2023-09-27T11:25:37.402Z,32.20
2023-09-27T11:28:40.110Z,32.34
2023-09-27T11:31:43.084Z,32.02
2023-09-27T11:34:58.125Z,32.21
2023-09-27T11:38:08.624Z,32.28
2023-09-27T11:41:15.684Z,32.71
2023-09-27T11:44:24.775Z,33.07
2023-09-27T11:47:27.555Z,33.12
2023-09-27T11:50:30.577Z,33.28
2023-09-27T11:53:33.188Z,33.08
2023-09-27T11:56:37.343Z,32.93
2023-09-27T11:59:40.289Z,33.27
2023-09-27T12:02:55.896Z,33.20
2023-09-27T12:06:00.670Z,32.92
2023-09-27T12:09:06.413Z,32.40
2023-09-27T12:12:09.763Z,31.70
2023-09-27T12:15:12.389Z,31.22
2023-09-27T12:18:15.299Z,31.67
2023-09-27T12:21:18.028Z,31.93
2023-09-27T12:24:20.911Z,32.42
2023-09-27T12:27:23.710Z,32.43
2023-09-27T12:30:28.897Z,32.70
2023-09-27T12:33:31.526Z,32.61
2023-09-27T12:36:34.501Z,32.62
2023-09-27T12:39:38.698Z,32.50
2023-09-27T12:42:41.542Z,32.60
2023-09-27T12:45:44.200Z,32.17
2023-09-27T12:48:47.226Z,32.32
2023-09-27T12:51:50.439Z,32.23
2023-09-27T12:54:53.325Z,31.98
2023-09-27T12:57:55.957Z,31.88
2023-09-27T13:00:59.116Z,31.85
2023-09-27T13:04:01.913Z,31.74
2023-09-27T13:07:04.843Z,31.62
2023-09-27T13:10:08.127Z,31.08
2023-09-27T13:13:11.344Z,31.00
2023-09-27T13:16:13.925Z,30.80
2023-09-27T13:19:16.764Z,30.63
2023-09-27T13:22:19.746Z,30.53
2023-09-27T13:25:22.695Z,30.35
2023-09-27T13:28:25.293Z,30.37
2023-09-27T13:31:34.770Z,30.29
2023-09-27T13:34:37.594Z,30.10
2023-09-27T13:37:40.433Z,30.13
2023-09-27T13:40:44.697Z,29.95
2023-09-27T13:43:48.739Z,29.60
2023-09-27T13:46:51.721Z,29.57
2023-09-27T13:49:54.749Z,29.30
2023-09-27T13:52:57.430Z,29.27
2023-09-27T13:56:00.463Z,29.01
2023-09-27T13:59:03.204Z,28.80
2023-09-27T14:02:07.737Z,28.62
2023-09-27T14:05:11.811Z,28.42
2023-09-27T14:08:17.524Z,28.23
2023-09-27T14:11:21.948Z,28.17
2023-09-27T14:14:27.783Z,28.01
2023-09-27T14:17:31.214Z,27.97
2023-09-27T14:20:33.883Z,27.83
2023-09-27T14:23:37.778Z,27.60
2023-09-27T14:26:44.069Z,27.55
2023-09-27T14:29:47.017Z,27.38
2023-09-27T14:32:49.632Z,27.06
2023-09-27T14:35:53.406Z,26.83
2023-09-27T14:38:59.110Z,26.64
2023-09-27T14:42:02.625Z,26.52
2023-09-27T14:45:16.868Z,26.34
2023-09-27T14:48:31.518Z,26.16
2023-09-27T14:51:34.740Z,26.14
2023-09-27T14:54:37.670Z,26.03
2023-09-27T14:57:42.018Z,25.98
2023-09-27T15:00:44.846Z,25.59
2023-09-27T15:03:47.654Z,25.73
2023-09-27T15:06:50.613Z,25.58
2023-09-27T15:09:53.412Z,25.47
2023-09-27T15:12:56.503Z,25.41
2023-09-27T15:15:59.222Z,25.41
2023-09-27T15:19:02.365Z,25.29
2023-09-27T15:22:05.093Z,25.17
2023-09-27T15:25:08.962Z,25.07
2023-09-27T15:28:11.549Z,24.95
2023-09-27T15:31:15.366Z,24.85
2023-09-27T15:34:18.009Z,24.80
2023-09-27T15:37:21.041Z,24.72
2023-09-27T15:40:24.655Z,24.65
2023-09-27T15:43:27.723Z,24.51
2023-09-27T15:46:30.963Z,24.47
2023-09-27T15:49:34.033Z,24.46
2023-09-27T15:52:36.805Z,24.36
2023-09-27T15:55:39.951Z,24.26
2023-09-27T15:58:42.671Z,24.23
2023-09-27T16:01:46.427Z,24.11
2023-09-27T16:04:52.794Z,24.08
2023-09-27T16:07:56.663Z,24.07
2023-09-27T16:10:59.616Z,23.90
2023-09-27T16:14:02.263Z,23.89
2023-09-27T16:17:05.403Z,23.72
2023-09-27T16:20:08.724Z,23.65
2023-09-27T16:23:12.106Z,23.52
2023-09-27T16:26:14.737Z,23.49
2023-09-27T16:29:18.210Z,23.40
2023-09-27T16:32:21.438Z,23.31
2023-09-27T16:35:24.833Z,23.16
2023-09-27T16:38:27.494Z,23.14
2023-09-27T16:41:31.766Z,23.09
2023-09-27T16:44:34.262Z,23.00
2023-09-27T16:47:37.554Z,22.84
2023-09-27T16:50:40.871Z,22.77
2023-09-27T16:53:44.087Z,22.66
2023-09-27T16:56:47.795Z,22.56
2023-09-27T16:59:50.666Z,22.35
2023-09-27T17:02:53.245Z,22.07
2023-09-27T17:05:56.240Z,21.83
2023-09-27T17:08:59.148Z,21.65
2023-09-27T17:12:05.598Z,21.43
2023-09-27T17:15:11.978Z,21.31
2023-09-27T17:18:19.231Z,21.20
2023-09-27T17:21:23.129Z,21.11
2023-09-27T17:24:26.519Z,20.92
2023-09-27T17:27:29.364Z,20.94
2023-09-27T17:30:32.897Z,20.84
2023-09-27T17:33:36.513Z,20.74
2023-09-27T17:36:39.871Z,20.64
2023-09-27T17:39:42.976Z,20.54
2023-09-27T17:42:47.697Z,20.45
2023-09-27T17:45:52.863Z,20.50
2023-09-27T17:49:00.784Z,20.50
2023-09-27T17:52:03.951Z,20.34
2023-09-27T17:55:09.692Z,20.26
2023-09-27T17:58:12.547Z,20.18
2023-09-27T18:01:15.849Z,20.18
2023-09-27T18:04:18.969Z,20.16
2023-09-27T18:07:21.772Z,20.13
2023-09-27T18:10:25.422Z,20.14
2023-09-27T18:13:28.742Z,20.17
2023-09-27T18:16:32.239Z,20.16
2023-09-27T18:19:35.229Z,20.17
2023-09-27T18:22:38.590Z,20.17
2023-09-27T18:25:44.582Z,20.51
2023-09-27T18:28:48.099Z,20.44
2023-09-27T18:31:50.928Z,20.38
2023-09-27T18:34:56.591Z,20.41
2023-09-27T18:38:01.607Z,20.36
2023-09-27T18:41:05.083Z,20.30
2023-09-27T18:44:08.411Z,20.01
2023-09-27T18:47:12.201Z,20.25
2023-09-27T18:50:15.456Z,20.21
2023-09-27T18:53:19.065Z,20.13
2023-09-27T18:56:32.200Z,20.15
2023-09-27T18:59:39.209Z,20.12
2023-09-27T19:02:42.224Z,20.08
2023-09-27T19:05:46.642Z,19.95
2023-09-27T19:08:56.195Z,19.98
2023-09-27T19:11:59.222Z,19.91
2023-09-27T19:15:02.052Z,19.94
2023-09-27T19:18:06.125Z,19.93
2023-09-27T19:21:11.628Z,19.88
2023-09-27T19:24:14.823Z,19.86
2023-09-27T19:27:19.194Z,19.82
2023-09-27T19:30:25.581Z,19.75
2023-09-27T19:33:30.247Z,19.71
2023-09-27T19:36:33.301Z,19.68
2023-09-27T19:39:36.902Z,19.60
2023-09-27T19:42:43.599Z,19.61
2023-09-27T19:45:47.069Z,19.55
2023-09-27T19:48:50.380Z,19.51
2023-09-27T19:51:53.284Z,19.45
2023-09-27T19:54:56.423Z,19.41
2023-09-27T19:57:59.308Z,19.36
2023-09-27T20:01:03.036Z,19.34
2023-09-27T20:04:06.905Z,19.33
2023-09-27T20:07:09.568Z,19.28
2023-09-27T20:10:12.944Z,19.24
2023-09-27T20:13:15.433Z,19.16
2023-09-27T20:16:18.656Z,19.09
2023-09-27T20:19:21.643Z,18.96
2023-09-27T20:22:24.660Z,18.91
2023-09-27T20:25:27.438Z,18.86
2023-09-27T20:28:30.482Z,18.82
2023-09-27T20:31:34.000Z,18.69
2023-09-27T20:34:37.267Z,18.12
2023-09-27T20:37:39.968Z,18.67
2023-09-27T20:40:42.979Z,18.61
2023-09-27T20:43:46.896Z,18.59
2023-09-27T20:46:51.081Z,18.52
2023-09-27T20:49:54.219Z,18.46
2023-09-27T20:52:57.481Z,18.41
2023-09-27T20:56:07.829Z,18.37
2023-09-27T20:59:11.163Z,18.19
2023-09-27T21:02:14.014Z,18.15
2023-09-27T21:05:17.081Z,18.29
2023-09-27T21:08:19.712Z,18.25
2023-09-27T21:11:24.736Z,18.21
2023-09-27T21:14:28.184Z,18.16
2023-09-27T21:17:31.940Z,18.04
2023-09-27T21:20:34.589Z,18.03
2023-09-27T21:23:37.535Z,17.99
2023-09-27T21:26:42.017Z,17.47
2023-09-27T21:29:44.984Z,17.94
2023-09-27T21:32:47.657Z,17.90
2023-09-27T21:35:55.140Z,17.87
2023-09-27T21:38:57.811Z,17.82
2023-09-27T21:42:00.761Z,17.81
2023-09-27T21:45:03.500Z,17.78
2023-09-27T21:48:06.618Z,17.79
2023-09-27T21:51:09.320Z,17.76
2023-09-27T21:54:12.143Z,17.74
2023-09-27T21:57:15.988Z,17.73
2023-09-27T22:00:21.423Z,17.73
2023-09-27T22:03:24.434Z,17.60
2023-09-27T22:06:27.262Z,17.76
2023-09-27T22:09:33.764Z,17.48
2023-09-27T22:12:38.078Z,17.77
2023-09-27T22:15:41.913Z,17.78
2023-09-27T22:18:50.806Z,17.79
2023-09-27T22:21:56.669Z,17.18
2023-09-27T22:24:59.231Z,17.82
2023-09-27T22:28:02.092Z,17.89
2023-09-27T22:31:12.978Z,17.91
2023-09-27T22:34:24.759Z,17.77
2023-09-27T22:37:27.814Z,17.88
2023-09-27T22:40:32.900Z,17.87
2023-09-27T22:43:38.813Z,17.87
2023-09-27T22:46:41.738Z,17.86
2023-09-27T22:49:44.530Z,17.84
2023-09-27T22:52:49.333Z,17.80
2023-09-27T22:55:59.093Z,17.42
2023-09-27T22:59:02.280Z,17.77
2023-09-27T23:02:10.501Z,17.74
2023-09-27T23:05:33.348Z,17.73
2023-09-27T23:08:39.139Z,17.72
2023-09-27T23:11:42.229Z,17.71
2023-09-27T23:15:03.916Z,17.71
2023-09-27T23:18:13.431Z,17.71
2023-09-27T23:21:25.814Z,17.70
2023-09-27T23:24:31.289Z,17.64
2023-09-27T23:27:34.138Z,17.63
2023-09-27T23:30:50.984Z,17.62
2023-09-27T23:33:53.980Z,17.58
2023-09-27T23:37:12.462Z,17.46
2023-09-27T23:40:15.814Z,17.47
2023-09-27T23:43:19.553Z,17.40
2023-09-27T23:46:22.272Z,17.29
2023-09-27T23:49:25.348Z,17.18
2023-09-27T23:52:29.605Z,17.19
2023-09-27T23:55:41.762Z,17.13
2023-09-27T23:58:45.141Z,17.09
